Time;durP1;ratioP1;P1;durP2;ratioP2;P2;SDS_P1;SDS_P2;PMS_P1;PMS_P2;Temp;Humidity;BMP_temperature;BMP_pressure;BME280_temperature;BME280_humidity;BME280_pressure;Samples;Min_cycle;Max_cycle;Signal;HPM_P1;HPM_P2
2023/02/24 00:02:04;;;;;;;33.75;7.47;;;;;;;5.71;100.00;101014.34;5073162;28;20044;-50
2023/02/24 00:04:33;;;;;;;49.30;7.93;;;;;;;5.69;99.68;101013.59;5069085;28;20040;-50
2023/02/24 00:07:01;;;;;;;52.40;7.10;;;;;;;5.63;98.95;101003.56;5073706;28;20486;-49
2023/02/24 00:09:29;;;;;;;45.47;8.07;;;;;;;5.58;97.99;101000.44;5068941;28;20139;-53
2023/02/24 00:11:59;;;;;;;50.58;8.63;;;;;;;5.54;98.30;100999.81;5073784;28;20049;-53
2023/02/24 00:14:30;;;;;;;53.50;9.32;;;;;;;5.53;99.10;100986.75;5065520;28;20066;-53
2023/02/24 00:16:57;;;;;;;52.83;8.48;;;;;;;5.45;99.70;100986.53;5073244;28;20063;-53
2023/02/24 00:19:27;;;;;;;48.90;8.65;;;;;;;5.44;100.00;100977.78;5068845;28;20044;-52
2023/02/24 00:21:54;;;;;;;58.35;9.55;;;;;;;5.51;99.71;100988.69;5073405;28;20041;-53
2023/02/24 00:24:22;;;;;;;53.63;9.68;;;;;;;5.56;100.00;100984.75;5068845;28;20041;-53
2023/02/24 00:26:53;;;;;;;48.58;9.85;;;;;;;5.55;100.00;100972.56;5073050;28;20060;-53
2023/02/24 00:29:23;;;;;;;64.20;11.65;;;;;;;5.49;99.85;100972.16;5065785;28;20048;-53
2023/02/24 00:31:58;;;;;;;54.80;10.45;;;;;;;5.52;100.00;100967.50;5073366;28;20553;-53
2023/02/24 00:34:27;;;;;;;55.35;11.90;;;;;;;5.47;100.00;100964.38;5071730;28;20048;-52
2023/02/24 00:36:56;;;;;;;48.10;10.73;;;;;;;5.49;100.00;100956.38;5070437;28;20490;-54
2023/02/24 00:39:29;;;;;;;52.78;11.57;;;;;;;5.48;99.81;100957.34;5071475;28;20072;-53
2023/02/24 00:42:03;;;;;;;61.28;11.57;;;;;;;5.53;100.00;100960.44;5071587;28;20110;-52
2023/02/24 00:44:32;;;;;;;55.60;12.48;;;;;;;5.45;100.00;100957.56;5070166;28;20554;-54
2023/02/24 00:47:00;;;;;;;54.78;12.43;;;;;;;5.41;99.94;100956.97;5068790;28;20102;-52
2023/02/24 00:49:28;;;;;;;65.93;12.98;;;;;;;5.48;100.00;100962.63;5079777;28;20044;-53
2023/02/24 00:51:55;;;;;;;71.03;13.60;;;;;;;5.55;100.00;100948.88;5068729;28;20162;-53
2023/02/24 00:54:26;;;;;;;52.78;15.25;;;;;;;5.66;100.00;100947.22;5071805;28;20132;-53
2023/02/24 00:57:16;;;;;;;67.25;14.77;;;;;;;5.59;99.98;100946.84;5068144;28;20048;-54
2023/02/24 00:59:46;;;;;;;60.10;13.93;;;;;;;5.61;99.96;100936.22;5071479;28;20446;-53
2023/02/24 01:02:14;;;;;;;61.88;12.55;;;;;;;5.54;100.00;100938.47;5064983;28;20048;-53
2023/02/24 01:04:43;;;;;;;48.42;12.75;;;;;;;5.51;99.89;100931.66;5072997;28;20051;-52
2023/02/24 01:07:12;;;;;;;64.55;12.75;;;;;;;5.55;99.37;100930.44;5068426;28;20374;-53
2023/02/24 01:09:40;;;;;;;58.33;13.30;;;;;;;5.56;99.44;100932.09;5073710;28;20113;-53
2023/02/24 01:14:56;;;;;;;63.67;13.13;;;;;;;5.47;100.00;100922.28;5076742;28;20041;-53
2023/02/24 01:17:24;;;;;;;68.50;13.98;;;;;;;5.49;100.00;100928.25;5069045;28;20071;-52
2023/02/24 01:19:51;;;;;;;60.70;13.60;;;;;;;5.45;100.00;100926.81;5076635;28;20052;-52
2023/02/24 01:22:19;;;;;;;71.93;14.80;;;;;;;5.33;100.00;100930.38;5076757;28;20486;-52
2023/02/24 01:24:47;;;;;;;65.95;12.40;;;;;;;5.31;99.69;100924.41;5073155;28;20547;-52
2023/02/24 01:27:17;;;;;;;78.63;13.38;;;;;;;5.28;100.00;100916.75;5076516;28;20048;-54
2023/02/24 01:29:47;;;;;;;57.75;11.73;;;;;;;5.31;100.00;100922.63;5072762;28;20036;-49
2023/02/24 01:32:17;;;;;;;53.90;11.15;;;;;;;5.32;100.00;100929.56;5075127;28;20083;-53
2023/02/24 01:34:46;;;;;;;65.88;11.75;;;;;;;5.26;100.00;100919.50;5069571;28;20454;-51
2023/02/24 01:37:15;;;;;;;54.67;9.73;;;;;;;5.24;100.00;100917.91;5056491;28;20048;-53
2023/02/24 01:39:43;;;;;;;42.47;9.30;;;;;;;5.26;100.00;100919.50;5050696;28;20222;-54
2023/02/24 01:42:15;;;;;;;46.65;8.43;;;;;;;5.26;100.00;100919.50;5056126;28;20076;-53
2023/02/24 01:47:21;;;;;;;44.97;7.80;;;;;;;5.13;100.00;100906.44;5111148;27;20402;-52
2023/02/24 01:49:53;;;;;;;43.88;7.55;;;;;;;5.17;99.62;100912.31;5106699;28;20398;-53
2023/02/24 01:52:25;;;;;;;37.03;7.80;;;;;;;5.11;98.57;100899.59;5107812;28;20032;-53
2023/02/24 01:54:59;;;;;;;42.65;7.65;;;;;;;5.08;98.42;100898.03;5110300;28;20441;-54
2023/02/24 01:57:30;;;;;;;43.92;5.93;;;;;;;5.02;97.60;100893.25;5106444;28;20114;-54
2023/02/24 02:00:00;;;;;;;43.15;6.40;;;;;;;4.91;97.49;100893.19;5110536;28;20050;-53
2023/02/24 02:02:28;;;;;;;40.75;6.65;;;;;;;4.89;97.50;100890.66;5106068;28;20101;-53
2023/02/24 02:05:02;;;;;;;43.50;6.32;;;;;;;4.89;97.36;100887.22;5110931;28;20485;-54
2023/02/24 02:07:30;;;;;;;31.85;5.32;;;;;;;4.90;97.39;100886.28;5102565;28;20474;-54
2023/02/24 02:10:02;;;;;;;36.97;6.38;;;;;;;4.84;97.89;100887.56;5110543;28;20113;-52
2023/02/24 02:12:32;;;;;;;45.05;6.15;;;;;;;4.85;98.45;100881.34;5104523;28;20391;-54
2023/02/24 02:15:02;;;;;;;41.25;6.40;;;;;;;4.93;98.54;100891.28;5110776;28;20089;-53
2023/02/24 02:17:53;;;;;;;41.33;6.15;;;;;;;4.98;98.35;100890.00;5105870;28;20078;-51
2023/02/24 02:20:55;;;;;;;33.28;5.25;;;;;;;4.88;98.82;100882.91;5110171;28;20122;-52
2023/02/24 02:24:03;;;;;;;41.95;6.20;;;;;;;4.88;98.77;100872.41;5102446;28;20046;-54
2023/02/24 02:26:57;;;;;;;43.17;6.13;;;;;;;4.76;99.18;100866.25;5109155;28;20063;-52
2023/02/24 02:32:50;;;;;;;40.75;6.00;;;;;;;4.69;99.86;100847.47;5172927;27;19954;-54
2023/02/24 02:35:35;;;;;;;42.13;6.88;;;;;;;4.63;99.78;100850.56;5152159;27;20073;-54
2023/02/24 02:38:17;;;;;;;48.53;7.43;;;;;;;4.64;99.26;100846.97;5147405;27;20043;-54
2023/02/24 02:40:58;;;;;;;48.03;7.13;;;;;;;4.58;99.38;100844.78;5148724;27;20059;-55
2023/02/24 02:43:51;;;;;;;37.80;5.63;;;;;;;4.63;99.13;100837.41;5133706;27;20516;-54
2023/02/24 02:46:33;;;;;;;42.90;6.40;;;;;;;4.60;99.16;100837.63;5147328;27;20072;-53
2023/02/24 02:49:11;;;;;;;55.22;8.15;;;;;;;4.59;98.94;100833.34;5147496;27;20096;-53
2023/02/24 02:51:44;;;;;;;38.78;7.35;;;;;;;4.64;98.65;100828.59;5126359;28;20046;-51
2023/02/24 02:54:36;;;;;;;36.05;6.80;;;;;;;4.60;98.38;100817.47;5131165;28;20377;-53
2023/02/24 02:57:09;;;;;;;43.17;7.65;;;;;;;4.56;97.21;100820.41;5127752;28;20043;-52
2023/02/24 02:59:42;;;;;;;40.65;6.75;;;;;;;4.57;97.42;100815.06;5130739;28;20052;-53
2023/02/24 03:02:16;;;;;;;40.47;6.07;;;;;;;4.59;97.18;100814.94;5126067;28;20043;-53
2023/02/24 03:04:52;;;;;;;36.90;6.25;;;;;;;4.57;96.56;100811.59;5131183;28;20039;-52
2023/02/24 03:07:22;;;;;;;35.17;6.70;;;;;;;4.68;96.47;100806.38;5126097;28;20042;-52
2023/02/24 03:09:55;;;;;;;34.60;6.25;;;;;;;4.62;97.26;100801.59;5130712;28;20134;-53
2023/02/24 03:12:25;;;;;;;44.17;6.68;;;;;;;4.65;97.12;100809.22;5122988;28;20426;-53
2023/02/24 03:14:57;;;;;;;31.45;5.57;;;;;;;4.64;96.51;100807.56;5130852;28;20541;-54
2023/02/24 03:17:30;;;;;;;40.13;6.78;;;;;;;4.56;97.05;100794.97;5126121;28;20065;-53
2023/02/24 03:20:14;;;;;;;37.05;6.35;;;;;;;4.56;98.12;100796.78;5112511;28;20497;-54
2023/02/24 03:22:57;;;;;;;41.25;6.50;;;;;;;4.57;97.71;100801.09;5125790;28;20393;-54
2023/02/24 03:25:28;;;;;;;46.03;6.70;;;;;;;4.48;97.86;100789.47;5130625;28;20489;-50
2023/02/24 03:28:02;;;;;;;37.85;6.32;;;;;;;4.50;97.88;100797.25;5122585;28;20079;-53
2023/02/24 03:30:42;;;;;;;28.05;5.30;;;;;;;4.48;96.88;100789.47;5130201;28;20134;-52
2023/02/24 03:33:18;;;;;;;40.78;5.75;;;;;;;4.44;96.57;100788.03;5125935;28;20043;-53
2023/02/24 03:35:49;;;;;;;32.22;6.43;;;;;;;4.42;96.67;100784.66;5131988;27;20036;-52
2023/02/24 03:38:18;;;;;;;38.77;6.63;;;;;;;4.44;96.03;100793.28;5125814;28;20058;-52
2023/02/24 03:40:45;;;;;;;40.53;6.65;;;;;;;4.38;95.15;100786.69;5128838;28;20044;-52
2023/02/24 03:43:26;;;;;;;36.35;5.53;;;;;;;4.36;95.62;100785.09;5113385;28;20078;-53
2023/02/24 03:45:55;;;;;;;32.75;6.40;;;;;;;4.45;95.06;100779.19;5113166;28;20099;-52
2023/02/24 03:48:23;;;;;;;47.20;5.97;;;;;;;4.56;95.21;100779.22;5116410;28;20100;-52
2023/02/24 03:50:52;;;;;;;28.27;5.78;;;;;;;4.47;95.00;100772.00;5111623;27;20446;-52
2023/02/24 03:53:54;;;;;;;41.78;5.97;;;;;;;4.48;94.72;100778.13;5116420;28;20453;-52
2023/02/24 03:56:47;;;;;;;30.30;5.85;;;;;;;4.56;94.40;100775.75;5111667;28;20039;-52
2023/02/24 03:59:38;;;;;;;30.27;5.43;;;;;;;4.53;94.43;100774.22;5115849;28;20043;-53
2023/02/24 04:02:16;;;;;;;31.30;6.28;;;;;;;4.52;94.88;100780.41;5112417;28;20122;-52
2023/02/24 04:05:08;;;;;;;46.05;5.78;;;;;;;4.44;93.71;100774.91;5116309;28;20062;-52
2023/02/24 04:07:56;;;;;;;36.85;7.03;;;;;;;4.35;94.31;100772.94;5111477;28;20135;-53
2023/02/24 04:10:32;;;;;;;27.65;5.22;;;;;;;4.40;94.57;100768.16;5115935;28;20454;-52
2023/02/24 04:13:42;;;;;;;38.55;5.28;;;;;;;4.38;93.34;100772.69;5111566;28;20047;-53
2023/02/24 04:16:27;;;;;;;36.58;5.78;;;;;;;4.45;93.32;100771.28;5115515;28;20047;-53
2023/02/24 04:19:02;;;;;;;35.42;5.57;;;;;;;4.38;93.73;100770.06;5111326;28;20088;-53
2023/02/24 04:21:32;;;;;;;36.60;5.82;;;;;;;4.39;94.04;100761.25;5115395;28;20097;-53
2023/02/24 04:24:07;;;;;;;42.78;5.95;;;;;;;4.31;93.62;100767.09;5093004;28;20389;-53
2023/02/24 04:26:39;;;;;;;40.15;5.03;;;;;;;4.54;93.66;100764.53;5115612;28;20039;-52
2023/02/24 04:29:08;;;;;;;30.85;4.82;;;;;;;4.40;92.46;100773.41;5111202;28;20082;-52
2023/02/24 04:31:37;;;;;;;30.10;4.70;;;;;;;4.30;93.11;100769.81;5115071;28;20051;-53
2023/02/24 04:34:08;;;;;;;37.20;4.70;;;;;;;4.33;92.65;100767.81;5109513;28;20053;-53
2023/02/24 04:36:37;;;;;;;34.75;5.68;;;;;;;4.46;92.03;100757.22;5115548;28;20047;-52
2023/02/24 04:39:04;;;;;;;36.63;5.45;;;;;;;4.52;91.55;100753.28;5115425;28;20134;-53
2023/02/24 04:41:31;;;;;;;40.63;4.30;;;;;;;4.54;91.92;100754.84;5110729;28;20096;-52
2023/02/24 04:43:57;;;;;;;25.90;4.47;;;;;;;4.50;91.05;100750.78;5115244;28;20512;-53
2023/02/24 04:46:24;;;;;;;27.83;4.57;;;;;;;4.34;90.42;100751.06;5092734;28;20044;-53
2023/02/24 04:48:51;;;;;;;25.23;3.83;;;;;;;4.33;90.51;100740.69;5114903;27;20066;-54
2023/02/24 04:51:19;;;;;;;37.47;4.97;;;;;;;4.27;90.02;100733.25;5107248;28;20044;-54
2023/02/24 04:53:48;;;;;;;35.13;4.55;;;;;;;4.45;90.97;100736.31;5114368;28;20051;-52
2023/02/24 04:56:17;;;;;;;33.88;4.55;;;;;;;4.36;90.72;100737.84;5110709;28;20104;-52
2023/02/24 04:58:45;;;;;;;36.25;4.55;;;;;;;4.47;90.53;100727.34;5114935;28;20048;-53
2023/02/24 05:01:12;;;;;;;33.22;4.35;;;;;;;4.55;90.43;100729.44;5109949;28;20122;-52
2023/02/24 05:03:41;;;;;;;22.05;4.32;;;;;;;4.41;90.48;100728.66;5114732;28;20069;-53
2023/02/24 05:06:14;;;;;;;36.78;5.32;;;;;;;4.32;91.63;100725.88;5107532;28;20051;-53
2023/02/24 05:08:42;;;;;;;26.77;4.93;;;;;;;4.28;92.22;100719.19;5114752;28;20040;-53
2023/02/24 05:11:14;;;;;;;32.30;5.68;;;;;;;4.38;91.98;100722.78;5114097;28;20039;-53
2023/02/24 05:13:44;;;;;;;44.92;6.57;;;;;;;4.41;91.57;100720.78;5110197;28;20445;-54
2023/02/24 05:16:13;;;;;;;39.45;5.65;;;;;;;4.32;91.47;100721.47;5114471;28;20043;-53
2023/02/24 05:18:41;;;;;;;33.17;4.97;;;;;;;4.38;91.52;100714.91;5110093;28;20150;-53
2023/02/24 05:21:44;;;;;;;32.88;5.30;;;;;;;4.27;91.39;100712.25;5096394;28;20551;-54
2023/02/24 05:24:05;;;;;;;29.35;5.63;;;;;;;4.21;91.81;100714.38;5110790;28;20039;-53
2023/02/24 05:26:35;;;;;;;41.10;5.25;;;;;;;4.23;91.61;100709.03;5113968;28;20405;-53
2023/02/24 05:29:05;;;;;;;25.70;4.68;;;;;;;4.31;91.28;100701.41;5110096;28;20043;-54
2023/02/24 05:31:33;;;;;;;39.22;5.82;;;;;;;4.32;90.85;100703.09;5096240;28;20043;-54
2023/02/24 05:34:04;;;;;;;37.05;5.85;;;;;;;4.35;91.01;100702.84;5110034;28;20050;-54
2023/02/24 05:36:38;;;;;;;39.05;5.68;;;;;;;4.40;90.92;100707.75;5121144;27;20051;-53
2023/02/24 05:39:06;;;;;;;37.90;4.93;;;;;;;4.34;90.69;100705.59;5130215;27;20039;-54
2023/02/24 05:41:37;;;;;;;28.30;5.65;;;;;;;4.37;90.52;100705.38;5130754;27;20036;-54
2023/02/24 05:44:08;;;;;;;33.75;5.75;;;;;;;4.46;90.18;100698.56;5135005;27;20487;-53
2023/02/24 05:46:38;;;;;;;47.05;6.47;;;;;;;4.34;91.15;100695.91;5129901;27;20040;-54
2023/02/24 05:49:10;;;;;;;42.38;7.15;;;;;;;4.33;92.33;100693.41;5133565;27;20065;-54
2023/02/24 05:51:38;;;;;;;32.47;7.95;;;;;;;4.34;92.04;100682.78;5108517;27;20481;-53
2023/02/24 05:54:07;;;;;;;41.10;7.63;;;;;;;4.36;92.83;100683.50;5114180;28;20050;-53
2023/02/24 05:56:37;;;;;;;47.58;9.27;;;;;;;4.23;93.31;100682.75;5105882;28;20044;-54
2023/02/24 05:59:07;;;;;;;37.42;8.07;;;;;;;4.29;93.81;100686.72;5113832;28;20493;-52
2023/02/24 06:01:36;;;;;;;40.55;7.50;;;;;;;4.14;93.71;100680.81;5091295;28;20459;-54
2023/02/24 06:04:05;;;;;;;34.13;7.32;;;;;;;3.95;95.04;100668.22;5113957;28;20047;-54
2023/02/24 06:06:35;;;;;;;46.55;9.50;;;;;;;4.10;94.74;100671.50;5110394;28;20051;-52
2023/02/24 06:09:09;;;;;;;37.10;10.35;;;;;;;4.04;95.22;100667.56;5113631;28;20446;-54
2023/02/24 06:11:39;;;;;;;35.92;10.63;;;;;;;4.14;94.80;100668.53;5108743;28;20525;-53
2023/02/24 06:14:07;;;;;;;37.72;9.13;;;;;;;4.09;94.12;100668.03;5109931;28;20446;-54
2023/02/24 06:16:35;;;;;;;37.25;9.00;;;;;;;4.09;94.79;100656.69;5113113;28;20044;-54
2023/02/24 06:19:04;;;;;;;40.55;9.07;;;;;;;4.08;94.74;100658.50;5108741;28;20432;-54
2023/02/24 06:21:31;;;;;;;38.10;7.28;;;;;;;4.18;93.88;100654.22;5113472;28;20071;-54
2023/02/24 06:23:59;;;;;;;39.83;6.88;;;;;;;4.08;93.52;100647.16;5108736;28;20378;-54
2023/02/24 06:26:28;;;;;;;36.53;6.78;;;;;;;4.02;93.85;100651.06;5095577;28;20048;-54
2023/02/24 06:28:57;;;;;;;35.10;6.45;;;;;;;4.11;93.23;100647.78;5105418;28;20043;-53
2023/02/24 06:31:25;;;;;;;26.48;6.50;;;;;;;4.18;92.33;100643.72;5112978;28;20055;-53
2023/02/24 06:33:53;;;;;;;36.95;8.63;;;;;;;3.94;93.08;100638.50;5090707;28;20040;-54
2023/02/24 06:36:20;;;;;;;48.72;11.98;;;;;;;3.99;92.30;100643.41;5113692;28;20086;-53
2023/02/24 06:38:48;;;;;;;41.20;11.65;;;;;;;3.91;92.83;100641.38;5090473;28;20039;-53
2023/02/24 06:41:15;;;;;;;48.42;14.15;;;;;;;3.95;92.93;100647.22;5113384;28;20067;-54
2023/02/24 06:43:43;;;;;;;48.30;15.23;;;;;;;4.04;92.48;100651.81;5090316;28;20524;-54
2023/02/24 06:46:13;;;;;;;43.20;17.75;;;;;;;4.16;91.97;100653.47;5109936;28;20044;-54
2023/02/24 06:48:41;;;;;;;48.97;19.73;;;;;;;4.17;91.50;100646.47;5112951;28;20052;-53
2023/02/24 06:51:12;;;;;;;58.08;19.10;;;;;;;4.14;90.54;100638.81;5108579;28;20055;-53
2023/02/24 06:53:42;;;;;;;53.53;19.65;;;;;;;4.04;90.92;100643.94;5113147;28;20130;-54
2023/02/24 06:56:13;;;;;;;58.25;20.90;;;;;;;4.07;91.70;100635.78;5108440;28;20069;-52
2023/02/24 06:58:42;;;;;;;58.83;19.40;;;;;;;4.03;91.47;100642.25;5112947;28;20047;-53
2023/02/24 07:01:12;;;;;;;44.05;19.55;;;;;;;3.97;92.45;100642.69;5104428;28;20184;-53
2023/02/24 07:03:39;;;;;;;49.80;18.30;;;;;;;4.04;91.17;100636.03;5112947;28;20122;-53
2023/02/24 07:06:28;;;;;;;44.28;16.05;;;;;;;3.99;91.30;100636.38;5116725;28;20047;-53
2023/02/24 07:08:57;;;;;;;33.97;12.50;;;;;;;3.96;92.22;100633.13;5129438;28;20496;-52
2023/02/24 07:11:24;;;;;;;55.47;11.70;;;;;;;3.85;93.34;100633.94;5110626;28;20043;-53
2023/02/24 07:13:53;;;;;;;40.15;9.32;;;;;;;4.06;93.06;100628.03;5133578;28;20047;-53
2023/02/24 07:16:25;;;;;;;43.72;9.15;;;;;;;3.99;93.50;100625.88;5125744;27;20051;-53
2023/02/24 07:18:55;;;;;;;36.10;7.03;;;;;;;4.17;91.47;100621.03;5137277;27;20401;-53
2023/02/24 07:21:24;;;;;;;32.63;5.85;;;;;;;4.17;90.87;100620.22;5136291;27;20046;-53
2023/02/24 07:24:02;;;;;;;27.73;5.78;;;;;;;4.20;90.13;100614.72;5134808;27;20043;-52
2023/02/24 07:26:29;;;;;;;35.65;6.03;;;;;;;4.23;90.76;100620.56;5116327;27;20051;-54
2023/02/24 07:28:56;;;;;;;32.20;6.43;;;;;;;4.25;90.31;100619.63;5136119;27;20048;-53
2023/02/24 07:31:24;;;;;;;30.83;6.15;;;;;;;4.27;90.87;100613.28;5135338;27;20047;-54
2023/02/24 07:33:54;;;;;;;33.33;6.28;;;;;;;4.26;90.43;100606.38;5131627;27;20496;-53
2023/02/24 07:36:22;;;;;;;30.38;5.65;;;;;;;4.40;89.73;100610.56;5137641;27;20141;-54
2023/02/24 07:38:52;;;;;;;25.73;5.45;;;;;;;4.51;88.89;100605.34;5132801;27;20433;-54
2023/02/24 07:41:21;;;;;;;27.10;6.05;;;;;;;4.29;88.46;100595.63;5137176;27;20039;-58
2023/02/24 07:43:49;;;;;;;25.83;5.30;;;;;;;4.42;88.29;100595.53;5132690;27;20066;-52
2023/02/24 07:46:21;;;;;;;28.98;6.85;;;;;;;4.28;89.52;100593.16;5136945;27;20401;-53
2023/02/24 07:48:49;;;;;;;;;;;;;;;4.29;89.46;100590.38;5131468;27;20035;-53
2023/02/24 07:51:18;;;;;;;35.88;6.75;;;;;;;4.26;89.94;100576.63;5117342;27;19951;-54
2023/02/24 07:53:52;;;;;;;28.67;6.05;;;;;;;4.18;90.84;100583.34;5104623;27;20059;-51
2023/02/24 07:56:25;;;;;;;28.52;6.00;;;;;;;4.36;90.72;100573.19;5111123;28;20047;-50
2023/02/24 07:58:59;;;;;;;30.10;5.88;;;;;;;4.39;88.79;100566.88;5116064;28;20043;-53
2023/02/24 08:01:28;;;;;;;27.90;5.78;;;;;;;4.42;89.08;100574.50;5111203;28;20047;-55
2023/02/24 08:04:00;;;;;;;38.50;6.07;;;;;;;4.45;89.00;100565.56;5116003;28;20070;-53
2023/02/24 08:06:38;;;;;;;;;;;;;;;4.53;87.62;100564.03;5108975;28;20052;-52
2023/02/24 08:09:15;;;;;;;33.40;6.93;;;;;;;4.59;86.54;100563.53;5115681;28;19920;-52
2023/02/24 08:11:53;;;;;;;31.63;5.97;;;;;;;4.60;86.61;100564.38;5111452;28;20093;-52
2023/02/24 08:14:23;;;;;;;22.75;6.18;;;;;;;4.58;86.30;100563.66;5115917;28;20051;-52
2023/02/24 08:16:58;;;;;;;22.52;6.00;;;;;;;4.52;86.68;100559.72;5111588;28;20500;-56
2023/02/24 08:19:31;;;;;;;27.38;6.20;;;;;;;4.63;86.41;100558.06;5115800;28;20054;-56
2023/02/24 08:22:18;;;;;;;26.60;6.03;;;;;;;4.71;85.60;100553.88;5111785;27;20092;-57
2023/02/24 08:24:52;;;;;;;23.90;5.78;;;;;;;4.53;86.05;100550.03;5115431;28;20127;-57
2023/02/24 08:27:22;;;;;;;26.77;5.40;;;;;;;4.77;85.61;100544.66;5126099;27;20043;-55
2023/02/24 08:29:59;;;;;;;25.15;5.50;;;;;;;4.57;85.64;100541.81;5087299;27;20134;-54
2023/02/24 08:32:32;;;;;;;25.42;5.60;;;;;;;4.48;84.91;100532.03;5108611;27;20036;-53
2023/02/24 08:35:02;;;;;;;21.40;6.18;;;;;;;4.33;86.91;100538.44;5115349;27;20039;-52
2023/02/24 08:37:33;;;;;;;37.10;7.25;;;;;;;4.45;86.53;100521.75;5108839;27;21120;-52
2023/02/24 08:39:59;;;;;;;31.73;6.50;;;;;;;4.67;86.71;100525.31;5097157;27;20172;-54
2023/02/24 08:42:33;;;;;;;28.98;6.78;;;;;;;4.41;85.30;100518.53;5095754;27;20080;-52
2023/02/24 08:45:00;;;;;;;23.98;6.10;;;;;;;4.47;85.85;100505.88;5112681;27;20131;-53
2023/02/24 08:47:29;;;;;;;26.80;6.50;;;;;;;4.39;85.89;100501.22;5113709;27;20819;-54
2023/02/24 08:50:00;;;;;;;34.50;7.18;;;;;;;4.64;85.83;100507.16;5106896;27;20397;-53
2023/02/24 08:52:27;;;;;;;31.50;6.82;;;;;;;4.84;84.30;100502.94;5115929;27;20028;-54
2023/02/24 08:55:00;;;;;;;24.33;6.72;;;;;;;4.96;83.34;100504.59;5099865;27;20705;-53
2023/02/24 08:57:27;;;;;;;30.90;6.47;;;;;;;4.77;82.16;100510.50;5106255;27;20046;-55
2023/02/24 08:59:56;;;;;;;32.03;7.32;;;;;;;4.80;82.56;100507.59;5103423;27;20088;-54
2023/02/24 09:02:28;;;;;;;24.70;5.65;;;;;;;4.62;81.81;100499.41;5106451;27;20148;-53
2023/02/24 09:05:02;;;;;;;28.85;6.18;;;;;;;4.68;82.41;100498.09;5092666;27;20833;-57
2023/02/24 09:07:39;;;;;;;35.17;6.50;;;;;;;4.84;82.95;100485.41;5103677;27;20093;-57
2023/02/24 09:10:16;;;;;;;17.85;5.97;;;;;;;4.83;80.55;100488.16;5113294;27;20056;-58
2023/02/24 09:12:43;;;;;;;22.77;4.75;;;;;;;4.93;80.18;100494.31;5081632;27;21054;-57
2023/02/24 09:15:14;;;;;;;20.05;4.60;;;;;;;4.76;78.74;100486.00;5117210;27;20047;-58
2023/02/24 09:23:18;;;;;;;24.25;4.18;;;;;;;4.42;78.11;100487.81;5075915;28;20041;-56
2023/02/24 09:25:49;;;;;;;28.35;5.00;;;;;;;4.53;79.11;100479.97;5083862;28;20202;-56
2023/02/24 09:28:23;;;;;;;27.90;4.73;;;;;;;4.60;78.74;100481.16;5075189;28;20439;-56
2023/02/24 09:30:55;;;;;;;26.70;4.40;;;;;;;4.42;77.00;100467.69;5092727;28;20047;-56
2023/02/24 09:33:28;;;;;;;17.55;3.70;;;;;;;4.56;77.54;100463.09;5053169;28;21806;-56
2023/02/24 09:36:18;;;;;;;19.40;4.03;;;;;;;4.78;76.64;100465.72;5084951;28;20035;-57
2023/02/24 09:41:55;;;;;;;14.05;3.55;;;;;;;4.70;76.32;100475.16;5113586;27;20408;-58
2023/02/24 09:44:41;;;;;;;21.02;3.53;;;;;;;4.71;75.83;100469.78;5045132;28;20043;-54
2023/02/24 09:47:18;;;;;;;19.75;3.72;;;;;;;4.61;74.86;100464.41;5093168;28;20085;-55
2023/02/24 09:49:54;;;;;;;22.63;3.88;;;;;;;4.53;74.73;100448.44;5051658;28;20132;-53
2023/02/24 09:52:38;;;;;;;14.13;3.25;;;;;;;4.43;74.13;100440.44;5088548;28;20189;-54
2023/02/24 09:55:34;;;;;;;20.15;3.75;;;;;;;4.39;74.51;100433.75;5050664;28;20167;-53
2023/02/24 10:04:05;;;;;;;19.45;4.65;;;;;;;4.69;74.57;100436.69;5072349;27;20128;-54
2023/02/24 10:06:48;;;;;;;17.73;3.13;;;;;;;4.71;74.29;100429.50;5084722;28;20048;-54
2023/02/24 10:09:33;;;;;;;16.42;3.20;;;;;;;4.78;74.17;100421.03;5057173;28;20665;-54
2023/02/24 10:12:11;;;;;;;18.83;3.35;;;;;;;4.75;73.64;100431.78;5097384;28;20046;-51
2023/02/24 10:15:19;;;;;;;17.25;3.67;;;;;;;4.70;73.77;100423.44;5054773;28;20044;-53
2023/02/24 10:17:54;;;;;;;18.75;3.35;;;;;;;4.71;74.18;100426.88;5094246;28;20052;-53
2023/02/24 10:20:38;;;;;;;14.88;4.03;;;;;;;4.63;74.83;100411.75;5080078;28;20101;-52
2023/02/24 10:23:28;;;;;;;14.18;3.90;;;;;;;4.55;74.86;100412.38;5084383;28;20075;-52
2023/02/24 10:26:04;;;;;;;23.35;3.95;;;;;;;4.48;75.71;100405.09;5089337;28;20455;-52
2023/02/24 10:28:56;;;;;;;18.58;4.47;;;;;;;4.58;75.55;100390.25;5071547;28;20335;-53
2023/02/24 10:31:34;;;;;;;18.63;4.40;;;;;;;4.58;75.87;100395.50;5086274;28;20048;-52
2023/02/24 10:34:07;;;;;;;22.85;4.85;;;;;;;4.70;75.45;100393.69;5061791;28;20677;-52
2023/02/24 10:36:34;;;;;;;29.00;5.18;;;;;;;4.84;75.76;100376.78;5093200;28;20052;-53
2023/02/24 10:39:15;;;;;;;17.52;5.03;;;;;;;4.80;75.13;100391.97;5065843;28;20044;-51
2023/02/24 10:41:45;;;;;;;19.55;4.90;;;;;;;4.79;76.48;100385.06;5094910;28;20164;-52
2023/02/24 10:44:19;;;;;;;24.77;4.80;;;;;;;4.78;75.26;100380.75;5073703;28;20040;-52
2023/02/24 10:46:46;;;;;;;18.55;5.07;;;;;;;4.73;76.11;100375.88;5087244;28;20040;-52
2023/02/24 10:49:15;;;;;;;17.40;4.80;;;;;;;4.71;76.62;100369.06;5069258;28;20044;-53
2023/02/24 10:51:48;;;;;;;21.35;4.88;;;;;;;4.78;76.47;100373.72;5071178;28;20052;-53
2023/02/24 10:54:32;;;;;;;23.75;5.10;;;;;;;4.71;77.33;100369.06;5075416;28;20055;-52
2023/02/24 10:57:35;;;;;;;21.50;4.70;;;;;;;4.56;77.74;100356.22;5080308;28;20048;-53
2023/02/24 11:00:29;;;;;;;15.18;4.30;;;;;;;4.32;78.47;100373.97;5093252;28;20058;-51
2023/02/24 11:03:07;;;;;;;28.75;4.80;;;;;;;4.38;79.82;100371.69;5073173;28;20106;-52
2023/02/24 11:05:37;;;;;;;24.13;4.70;;;;;;;4.28;79.76;100352.38;5053362;28;20513;-52
2023/02/24 11:08:14;;;;;;;22.85;5.32;;;;;;;4.24;81.48;100358.84;5070961;28;20047;-53
2023/02/24 11:10:52;;;;;;;23.35;5.00;;;;;;;4.19;81.19;100342.63;5065005;28;20057;-52
2023/02/24 11:18:56;;;;;;;32.80;5.28;;;;;;;4.29;85.68;100321.69;5065211;28;20036;-53
2023/02/24 11:21:26;;;;;;;25.08;4.50;;;;;;;4.30;85.27;100318.13;5039048;28;20052;-53
2023/02/24 11:24:01;;;;;;;16.95;5.20;;;;;;;4.22;85.13;100324.81;5054664;28;20045;-53
2023/02/24 11:26:39;;;;;;;14.38;3.78;;;;;;;4.02;84.96;100312.44;5047556;28;20457;-52
2023/02/24 11:29:40;;;;;;;24.80;4.45;;;;;;;3.98;86.19;100308.38;5054145;28;20045;-54
2023/02/24 11:32:47;;;;;;;27.80;4.97;;;;;;;3.84;87.35;100305.06;5049640;28;20041;-54
2023/02/24 11:35:40;;;;;;;19.45;4.60;;;;;;;3.89;91.93;100296.81;5049413;28;20060;-52
2023/02/24 11:38:45;;;;;;;21.52;4.55;;;;;;;4.04;90.95;100290.38;5056135;28;20086;-54
2023/02/24 11:41:36;;;;;;;15.95;3.83;;;;;;;3.92;90.84;100291.34;5031532;28;20052;-53
2023/02/24 11:44:14;;;;;;;20.92;4.70;;;;;;;3.94;93.16;100291.22;5050205;28;20119;-54
2023/02/24 11:46:47;;;;;;;30.20;5.07;;;;;;;3.82;93.19;100283.38;5057203;28;20447;-53
2023/02/24 11:49:44;;;;;;;20.80;4.70;;;;;;;3.81;94.72;100275.63;5057307;28;20390;-54
2023/02/24 11:52:17;;;;;;;17.25;4.70;;;;;;;3.97;94.99;100272.63;5054799;28;20150;-54
2023/02/24 11:54:52;;;;;;;22.90;5.50;;;;;;;3.92;93.76;100259.03;5048033;28;20041;-53
2023/02/24 11:57:27;;;;;;;22.00;5.35;;;;;;;3.77;94.34;100267.16;5041159;28;20051;-54
2023/02/24 12:00:11;;;;;;;22.52;5.03;;;;;;;3.84;94.14;100244.72;5055697;28;20057;-54
2023/02/24 12:02:50;;;;;;;21.80;5.13;;;;;;;3.95;96.32;100245.66;5043548;28;20083;-54
2023/02/24 12:05:24;;;;;;;30.65;5.72;;;;;;;3.94;96.10;100236.13;5038375;28;20052;-55
2023/02/24 12:07:57;;;;;;;32.58;6.15;;;;;;;4.14;95.16;100234.50;5053287;28;20049;-52
2023/02/24 12:10:29;;;;;;;22.38;4.75;;;;;;;3.93;94.45;100229.19;5053224;28;20084;-52
2023/02/24 12:15:54;;;;;;;22.23;4.75;;;;;;;3.87;94.94;100227.06;5118371;27;20384;-53
2023/02/24 12:18:28;;;;;;;17.13;4.90;;;;;;;3.89;95.09;100219.91;5125581;28;20058;-54
2023/02/24 12:21:04;;;;;;;22.92;4.90;;;;;;;3.95;94.65;100211.56;5113297;27;20058;-56
2023/02/24 12:23:35;;;;;;;18.08;5.50;;;;;;;3.81;95.94;100212.66;5095895;27;20036;-51
2023/02/24 12:26:26;;;;;;;19.65;4.68;;;;;;;3.86;96.42;100210.50;5117260;27;20043;-50
2023/02/24 12:29:23;;;;;;;25.67;5.70;;;;;;;3.92;96.09;100210.00;5098657;28;20039;-53